Time;durP1;ratioP1;P1;durP2;ratioP2;P2;SDS_P1;SDS_P2;PMS_P1;PMS_P2;Temp;Humidity;BMP_temperature;BMP_pressure;BME280_temperature;BME280_humidity;BME280_pressure;Samples;Min_cycle;Max_cycle;Signal;HPM_P1;HPM_P2
2022/05/13 00:00:13;;;;;;;9.40;5.50;;;;;;;16.86;57.22;101532.34;2082148;28;20429;-65
2022/05/13 00:01:14;;;;;;;7.57;5.07;;;;;;;16.81;57.63;101526.56;2081587;28;20442;-65
2022/05/13 00:02:14;;;;;;;10.67;5.50;;;;;;;16.86;57.34;101531.59;2080985;28;20427;-65
2022/05/13 00:03:15;;;;;;;8.73;5.27;;;;;;;16.88;56.50;101523.50;2081917;28;20237;-65
2022/05/13 00:04:15;;;;;;;8.20;5.10;;;;;;;16.84;56.96;101528.44;2081822;28;20184;-65
2022/05/13 00:05:16;;;;;;;11.73;5.13;;;;;;;16.82;56.65;101525.34;2081072;28;20184;-65
2022/05/13 00:06:16;;;;;;;10.13;5.40;;;;;;;16.74;56.79;101510.00;2082099;28;20275;-65
2022/05/13 00:07:16;;;;;;;7.30;4.67;;;;;;;16.78;56.93;101522.66;2081988;28;20236;-65
2022/05/13 00:08:17;;;;;;;8.50;5.00;;;;;;;16.70;57.37;101526.94;2082030;28;20241;-66
2022/05/13 00:09:17;;;;;;;17.53;6.33;;;;;;;16.64;57.35;101522.38;2082085;28;20169;-65
2022/05/13 00:10:18;;;;;;;34.83;8.73;;;;;;;16.63;57.43;101521.59;2082022;28;20620;-65
2022/05/13 00:11:19;;;;;;;32.13;8.10;;;;;;;16.58;57.43;101538.94;2080809;28;20273;-65
2022/05/13 00:12:20;;;;;;;43.37;9.17;;;;;;;16.58;57.64;101524.16;2080500;28;20477;-65
2022/05/13 00:13:21;;;;;;;31.90;7.67;;;;;;;16.58;58.04;101521.38;2081883;28;20489;-65
2022/05/13 00:14:22;;;;;;;22.50;6.60;;;;;;;16.59;58.13;101522.97;2082032;28;20277;-65
2022/05/13 00:15:25;;;;;;;17.80;6.47;;;;;;;16.58;58.32;101516.56;2080331;28;20416;-65
2022/05/13 00:16:25;;;;;;;10.97;6.10;;;;;;;16.15;58.22;101449.28;2081243;28;20177;-65
2022/05/13 00:17:27;;;;;;;16.20;5.80;;;;;;;16.06;58.18;101459.56;2082135;28;20430;-65
2022/05/13 00:18:28;;;;;;;14.03;6.20;;;;;;;16.52;58.26;101514.03;2089567;28;20180;-65
2022/05/13 00:19:28;;;;;;;15.40;6.20;;;;;;;16.54;58.63;101513.09;2090372;28;20425;-65
2022/05/13 00:20:29;;;;;;;14.10;6.13;;;;;;;16.53;58.43;101511.53;2090095;28;20180;-66
2022/05/13 00:21:29;;;;;;;17.37;6.27;;;;;;;16.54;58.46;101510.31;2089485;28;20238;-65
2022/05/13 00:22:30;;;;;;;14.57;6.17;;;;;;;15.99;58.50;101429.06;2082789;28;20188;-65
2022/05/13 00:23:32;;;;;;;16.40;6.10;;;;;;;16.47;58.65;101503.41;2081697;28;20236;-65
2022/05/13 00:24:32;;;;;;;17.00;5.90;;;;;;;16.48;58.84;101514.13;2080490;28;20181;-65
2022/05/13 00:25:36;;;;;;;12.90;5.73;;;;;;;16.48;59.07;101513.34;2080874;28;20416;-68
2022/05/13 00:26:36;;;;;;;15.47;5.60;;;;;;;16.47;59.30;101515.34;2082007;28;20265;-68
2022/05/13 00:27:37;;;;;;;17.17;5.93;;;;;;;16.48;59.01;101516.16;2081927;28;20411;-68
2022/05/13 00:28:37;;;;;;;8.13;4.90;;;;;;;16.39;58.91;101505.66;2081888;28;20181;-68
2022/05/13 00:29:38;;;;;;;8.97;5.20;;;;;;;16.48;58.77;101511.31;2081296;28;20266;-67
2022/05/13 00:30:41;;;;;;;7.37;5.10;;;;;;;16.48;58.81;101512.13;2081005;28;20189;-68
2022/05/13 00:31:42;;;;;;;11.73;5.57;;;;;;;16.41;58.99;101511.56;2080848;28;20201;-67
2022/05/13 00:32:47;;;;;;;8.17;5.67;;;;;;;16.42;58.94;101513.91;2081583;28;20983;-67
2022/05/13 00:33:47;;;;;;;11.83;5.63;;;;;;;15.90;58.79;101428.97;2081573;28;20517;-68
2022/05/13 00:34:48;;;;;;;8.53;5.57;;;;;;;16.44;58.83;101508.66;2081226;28;20433;-67
2022/05/13 00:35:49;;;;;;;8.80;5.10;;;;;;;16.00;58.87;101445.41;2081703;28;20176;-67
2022/05/13 00:36:50;;;;;;;11.57;5.80;;;;;;;16.43;59.06;101500.69;2081719;28;20427;-68
2022/05/13 00:37:51;;;;;;;10.50;5.90;;;;;;;16.42;59.08;101522.31;2081464;28;20217;-68
2022/05/13 00:38:51;;;;;;;10.40;5.93;;;;;;;16.40;59.33;101510.00;2081580;28;20189;-68
2022/05/13 00:39:52;;;;;;;11.03;5.90;;;;;;;16.39;59.20;101512.00;2081787;28;20196;-67
2022/05/13 00:40:53;;;;;;;11.10;6.00;;;;;;;16.35;59.74;101508.50;2081818;28;20266;-67
2022/05/13 00:41:54;;;;;;;8.27;5.80;;;;;;;16.29;60.28;101515.91;2080603;28;20715;-67
2022/05/13 00:43:01;;;;;;;10.57;5.90;;;;;;;16.23;60.85;101517.72;2081550;28;20595;-68
2022/05/13 00:44:01;;;;;;;6.93;5.70;;;;;;;16.18;60.46;101509.91;2081544;28;20945;-67
2022/05/13 00:45:02;;;;;;;9.87;5.80;;;;;;;16.20;60.31;101513.03;2080823;28;20801;-68
2022/05/13 00:46:03;;;;;;;8.57;5.63;;;;;;;16.19;60.56;101510.69;2081684;28;20183;-68
2022/05/13 00:47:05;;;;;;;8.17;5.87;;;;;;;14.68;60.44;101280.81;2081836;28;20185;-67
2022/05/13 00:48:06;;;;;;;14.30;5.90;;;;;;;16.05;60.84;101517.53;2081003;28;20470;-67
2022/05/13 00:49:11;;;;;;;10.77;5.70;;;;;;;15.98;61.24;101520.53;2081679;28;20901;-67
2022/05/13 00:50:14;;;;;;;9.63;6.03;;;;;;;15.90;61.26;101519.22;2081857;28;20499;-69
2022/05/13 00:51:19;;;;;;;12.43;5.57;;;;;;;15.90;60.51;101512.81;2081592;28;20419;-68
2022/05/13 00:52:19;;;;;;;9.77;5.83;;;;;;;15.74;60.67;101488.56;2080727;28;20475;-67
2022/05/13 00:53:20;;;;;;;8.03;5.37;;;;;;;15.92;60.60;101521.53;2081810;28;20804;-68
2022/05/13 00:54:21;;;;;;;10.03;5.47;;;;;;;15.62;61.36;101471.81;2081484;28;20204;-67
2022/05/13 00:55:37;;;;;;;8.40;6.20;;;;;;;15.85;62.75;101513.38;2080779;28;20879;-68
2022/05/13 00:56:42;;;;;;;8.57;5.63;;;;;;;15.91;63.24;101508.78;2081644;28;20184;-67
2022/05/13 00:57:44;;;;;;;10.17;6.20;;;;;;;15.93;62.76;101514.75;2081771;28;20477;-67
2022/05/13 00:58:47;;;;;;;7.30;5.73;;;;;;;15.96;62.88;101517.41;2080967;28;20423;-68
2022/05/13 00:59:51;;;;;;;9.47;5.60;;;;;;;15.98;63.07;101517.72;2081167;28;20971;-67
2022/05/13 01:00:52;;;;;;;9.33;5.80;;;;;;;15.95;63.15;101518.66;2081561;28;20427;-67
2022/05/13 01:01:52;;;;;;;7.43;5.87;;;;;;;15.97;64.21;101523.78;2080599;28;20428;-66
2022/05/13 01:02:53;;;;;;;8.77;6.23;;;;;;;16.02;65.41;101537.97;2081510;28;20268;-65
2022/05/13 01:03:56;;;;;;;7.53;6.50;;;;;;;16.04;67.15;101543.13;2081452;28;20181;-65
2022/05/13 01:04:57;;;;;;;7.73;6.93;;;;;;;15.96;68.21;101530.59;2080528;28;20654;-65
2022/05/13 01:06:00;;;;;;;8.90;7.20;;;;;;;15.93;69.11;101526.69;2081574;28;20908;-66
2022/05/13 01:07:05;;;;;;;8.23;6.80;;;;;;;15.90;69.09;101519.22;2081498;28;20550;-65
2022/05/13 01:08:07;;;;;;;7.70;6.73;;;;;;;15.90;69.54;101518.41;2081757;28;20458;-65
2022/05/13 01:09:08;;;;;;;8.50;6.17;;;;;;;15.97;69.18;101518.19;2081618;28;20481;-66
2022/05/13 01:10:16;;;;;;;9.47;6.20;;;;;;;16.01;69.10;101510.47;2081608;28;20917;-66
2022/05/13 01:11:20;;;;;;;8.80;5.97;;;;;;;16.07;68.43;101517.84;2081331;28;20259;-65
2022/05/13 01:12:27;;;;;;;9.33;6.53;;;;;;;16.11;68.32;101524.13;2080603;28;20443;-66
2022/05/13 01:13:31;;;;;;;6.63;5.87;;;;;;;16.15;68.07;101524.78;2080894;28;20502;-65
2022/05/13 01:14:36;;;;;;;7.53;6.00;;;;;;;16.19;67.92;101517.03;2080369;28;20423;-65
2022/05/13 01:15:39;;;;;;;11.37;6.40;;;;;;;15.14;67.87;101358.34;2081264;28;20415;-65
2022/05/13 01:18:05;;;;;;;7.93;6.40;;;;;;;16.24;68.01;101515.72;2081732;28;20400;-65
2022/05/13 01:19:05;;;;;;;9.60;6.50;;;;;;;16.21;67.48;101505.41;2081503;28;20893;-65
2022/05/13 01:20:07;;;;;;;7.07;6.20;;;;;;;16.30;67.59;101533.50;2081466;28;20411;-65
2022/05/13 01:21:11;;;;;;;8.13;6.27;;;;;;;16.19;67.37;101496.72;2081481;28;20672;-65
2022/05/13 01:22:16;;;;;;;9.63;6.27;;;;;;;16.34;67.11;101512.56;2080055;28;20947;-65
2022/05/13 01:23:44;;;;;;;10.10;6.33;;;;;;;16.38;66.71;101518.81;2081356;28;20506;-65
2022/05/13 01:24:45;;;;;;;6.90;5.67;;;;;;;16.28;66.14;101500.38;2078689;28;20451;-65
2022/05/13 01:25:52;;;;;;;5.93;4.90;;;;;;;16.41;65.48;101511.56;2081425;28;20417;-65
2022/05/13 01:26:53;;;;;;;9.07;5.90;;;;;;;16.31;65.53;101493.09;2081412;28;20694;-65
2022/05/13 01:27:56;;;;;;;7.47;6.07;;;;;;;16.42;65.60;101515.94;2081366;28;20420;-65
2022/05/13 01:28:57;;;;;;;8.10;5.10;;;;;;;16.30;65.60;101497.91;2081711;28;20179;-65
2022/05/13 01:29:57;;;;;;;7.57;6.07;;;;;;;16.42;65.43;101501.94;2081433;28;20433;-65
2022/05/13 01:31:04;;;;;;;7.37;5.77;;;;;;;16.44;65.50;101502.28;2081417;28;20423;-65
2022/05/13 01:32:05;;;;;;;7.00;5.20;;;;;;;16.49;65.28;101518.50;2080263;28;20747;-67
2022/05/13 01:33:05;;;;;;;5.97;5.37;;;;;;;16.48;64.99;101520.50;2081408;28;20849;-68
2022/05/13 01:34:08;;;;;;;8.03;5.57;;;;;;;16.42;65.35;101520.75;2080522;28;20206;-66
2022/05/13 01:35:09;;;;;;;7.30;5.57;;;;;;;16.44;65.37;101508.66;2079790;28;20274;-66
2022/05/13 01:36:12;;;;;;;6.83;5.17;;;;;;;16.43;64.85;101514.69;2081428;28;20483;-65
2022/05/13 01:37:13;;;;;;;6.37;4.70;;;;;;;16.44;63.63;101510.69;2081362;28;20626;-65
2022/05/13 01:38:15;;;;;;;7.07;4.33;;;;;;;16.43;63.19;101509.88;2081405;28;20410;-65
2022/05/13 01:39:16;;;;;;;6.80;4.43;;;;;;;16.44;61.99;101508.66;2081234;28;20176;-65
2022/05/13 01:40:16;;;;;;;5.13;4.20;;;;;;;16.27;60.40;101490.41;2081485;28;20458;-65
2022/05/13 01:41:17;;;;;;;7.33;5.23;;;;;;;16.12;61.11;101472.53;2081104;28;20171;-66
2022/05/13 01:42:18;;;;;;;4.97;4.03;;;;;;;16.45;60.28;101498.25;2080335;28;20191;-66
2022/05/13 01:43:19;;;;;;;6.83;4.70;;;;;;;16.43;60.15;101504.28;2081470;28;20318;-65
2022/05/13 01:44:20;;;;;;;9.20;4.00;;;;;;;16.48;58.94;101494.53;2081188;28;20179;-66
2022/05/13 01:45:20;;;;;;;6.03;3.90;;;;;;;16.50;58.97;101511.66;2080290;28;20421;-66
2022/05/13 01:46:22;;;;;;;6.80;4.20;;;;;;;16.49;58.52;101501.72;2081305;28;20727;-66
2022/05/13 01:47:24;;;;;;;5.20;3.80;;;;;;;16.51;58.75;101524.41;2081410;28;20178;-65
2022/05/13 01:48:27;;;;;;;6.27;4.07;;;;;;;16.54;58.79;101503.94;2081272;28;20846;-65
2022/05/13 01:49:27;;;;;;;4.70;4.00;;;;;;;16.54;58.00;101507.50;2081182;28;20412;-65
2022/05/13 01:50:28;;;;;;;5.30;3.87;;;;;;;16.07;57.62;101447.94;2081260;28;20435;-66
2022/05/13 01:51:28;;;;;;;7.83;3.93;;;;;;;16.51;57.66;101502.03;2080410;28;20210;-65
2022/05/13 01:52:29;;;;;;;5.97;3.60;;;;;;;16.45;56.33;101485.03;2081111;28;20191;-65
2022/05/13 01:53:30;;;;;;;5.27;3.87;;;;;;;16.53;56.31;101505.94;2081347;28;20188;-65
2022/05/13 01:54:30;;;;;;;4.93;3.70;;;;;;;16.23;55.87;101474.97;2080885;28;20633;-65
2022/05/13 01:55:31;;;;;;;6.33;4.17;;;;;;;16.54;56.46;101501.91;2080642;28;20182;-65
2022/05/13 01:56:31;;;;;;;6.47;4.23;;;;;;;16.58;57.56;101504.56;2081248;28;20204;-65
2022/05/13 01:57:32;;;;;;;7.07;4.00;;;;;;;16.02;58.10;101406.56;2081307;28;20190;-65
2022/05/13 01:58:32;;;;;;;6.47;4.50;;;;;;;16.62;58.37;101501.69;2080484;28;20711;-65
2022/05/13 01:59:33;;;;;;;7.23;4.87;;;;;;;16.63;59.02;101504.00;2080734;28;20651;-66
2022/05/13 02:00:33;;;;;;;4.93;4.43;;;;;;;16.63;59.33;101502.00;2081189;28;20215;-65
2022/05/13 02:01:33;;;;;;;7.67;5.27;;;;;;;16.65;59.55;101505.13;2080044;28;20587;-66
2022/05/13 02:03:44;;;;;;;5.90;4.53;;;;;;;16.62;59.84;101501.69;2081254;28;20181;-65
2022/05/13 02:03:54;;;;;;;4.90;4.40;;;;;;;16.60;60.02;101502.13;2080929;28;20174;-67
2022/05/13 02:04:55;;;;;;;5.37;4.30;;;;;;;16.62;59.88;101518.47;2079966;28;20401;-66
2022/05/13 02:05:56;;;;;;;6.70;4.53;;;;;;;16.60;59.95;101500.09;2081138;28;20211;-66
2022/05/13 02:06:57;;;;;;;6.00;4.77;;;;;;;16.41;60.20;101483.59;2081156;28;20670;-65
2022/05/13 02:07:58;;;;;;;5.90;5.10;;;;;;;16.62;60.30;101505.25;2081098;28;20506;-66
2022/05/13 02:08:59;;;;;;;5.90;5.00;;;;;;;16.61;60.70;101498.09;2081148;28;20435;-65
2022/05/13 02:09:59;;;;;;;6.83;5.23;;;;;;;16.62;61.11;101496.84;2081158;28;20173;-66
2022/05/13 02:11:00;;;;;;;6.70;4.90;;;;;;;16.56;61.23;101507.06;2081167;28;20203;-66
2022/05/13 02:12:01;;;;;;;8.93;6.47;;;;;;;16.62;61.68;101498.88;2079950;28;20201;-65
2022/05/13 02:13:01;;;;;;;7.47;5.27;;;;;;;16.59;62.48;101500.56;2080772;28;20800;-66
2022/05/13 02:14:04;;;;;;;6.27;5.23;;;;;;;16.55;62.59;101530.69;2081147;28;20198;-66
2022/05/13 02:15:05;;;;;;;6.90;5.77;;;;;;;16.49;62.47;101505.28;2080143;28;20268;-66
2022/05/13 02:16:05;;;;;;;7.27;5.77;;;;;;;16.46;62.98;101508.19;2080956;28;20419;-65
2022/05/13 02:17:06;;;;;;;6.43;5.70;;;;;;;16.42;62.55;101515.16;2081103;28;20423;-65
2022/05/13 02:18:08;;;;;;;6.93;5.23;;;;;;;16.39;62.05;101508.44;2085717;28;20636;-65
2022/05/13 02:19:09;;;;;;;8.67;5.60;;;;;;;16.38;61.54;101507.63;2089268;28;20666;-65
2022/05/13 02:20:11;;;;;;;6.43;5.17;;;;;;;15.99;61.33;101449.41;2088576;28;20497;-66
2022/05/13 02:21:13;;;;;;;7.53;5.30;;;;;;;16.35;61.58;101504.97;2088766;28;20421;-66
2022/05/13 02:22:13;;;;;;;7.97;5.40;;;;;;;16.31;61.83;101502.28;2083294;28;20427;-66
2022/05/13 02:23:17;;;;;;;9.03;5.23;;;;;;;16.29;61.72;101506.75;2080900;28;20498;-66
2022/05/13 02:24:18;;;;;;;7.00;5.40;;;;;;;16.27;61.82;101506.41;2080831;28;20679;-66
2022/05/13 02:25:18;;;;;;;8.27;5.63;;;;;;;16.21;62.24;101506.22;2079922;28;20416;-65
2022/05/13 02:26:19;;;;;;;6.60;5.43;;;;;;;16.15;62.29;101504.44;2080860;28;20216;-66
2022/05/13 02:27:19;;;;;;;13.33;6.53;;;;;;;16.13;62.42;101513.25;2081127;28;20173;-66
2022/05/13 02:28:19;;;;;;;7.40;5.60;;;;;;;16.13;62.89;101506.91;2081069;28;20632;-66
2022/05/13 02:29:20;;;;;;;6.33;5.70;;;;;;;16.15;62.78;101510.00;2081172;28;20206;-65
2022/05/13 02:30:22;;;;;;;8.07;5.70;;;;;;;15.41;63.04;101399.81;2080998;28;20185;-65
2022/05/13 02:31:22;;;;;;;8.80;5.80;;;;;;;16.07;63.13;101506.66;2080550;28;20189;-65
2022/05/13 02:32:22;;;;;;;8.90;5.97;;;;;;;15.94;63.33;101494.69;2080273;28;20430;-66
2022/05/13 02:33:23;;;;;;;7.20;5.90;;;;;;;16.11;63.42;101517.72;2081000;28;20183;-66
2022/05/13 02:34:23;;;;;;;6.63;5.93;;;;;;;16.10;63.59;101513.38;2080869;28;20266;-65
2022/05/13 02:35:24;;;;;;;7.33;5.83;;;;;;;16.07;63.56;101515.06;2080191;28;20177;-66
2022/05/13 02:36:26;;;;;;;8.87;6.27;;;;;;;16.08;63.96;101536.19;2081089;28;20180;-66
2022/05/13 02:37:26;;;;;;;7.13;5.63;;;;;;;16.09;63.79;101520.22;2081035;28;20423;-65
2022/05/13 02:38:27;;;;;;;6.90;5.77;;;;;;;16.09;63.92;101509.03;2081050;28;20541;-66
2022/05/13 02:39:27;;;;;;;8.63;5.70;;;;;;;15.91;63.89;101490.03;2081002;28;20734;-66
2022/05/13 02:41:13;;;;;;;8.07;5.50;;;;;;;15.39;64.20;101422.63;2081005;28;20267;-66
2022/05/13 02:41:49;;;;;;;7.90;5.97;;;;;;;16.02;64.37;101504.44;2072516;28;20911;-65
2022/05/13 02:42:49;;;;;;;7.47;6.33;;;;;;;15.96;64.19;101509.03;2080006;28;20929;-65
2022/05/13 02:43:54;;;;;;;7.77;6.53;;;;;;;15.79;64.64;101485.19;2072135;28;20181;-66
2022/05/13 02:44:55;;;;;;;8.23;6.33;;;;;;;15.92;64.49;101505.56;2079247;28;20177;-66
2022/05/13 02:45:56;;;;;;;9.73;6.33;;;;;;;15.85;65.01;101513.38;2080735;28;20462;-66
2022/05/13 02:46:56;;;;;;;7.87;6.40;;;;;;;15.78;64.58;101513.63;2080966;28;20242;-65
2022/05/13 02:47:57;;;;;;;9.53;6.20;;;;;;;15.69;65.03;101514.28;2080975;28;20191;-66
2022/05/13 02:48:58;;;;;;;8.37;6.27;;;;;;;15.59;65.02;101511.78;2080878;28;20192;-66
2022/05/13 02:51:18;;;;;;;10.27;6.10;;;;;;;15.58;64.16;101518.63;2080712;28;20491;-66
2022/05/13 02:52:18;;;;;;;14.20;5.87;;;;;;;15.59;64.05;101518.19;2079908;28;20426;-65
2022/05/13 02:53:19;;;;;;;13.50;6.53;;;;;;;15.58;63.33;101519.38;2081004;28;20510;-65
2022/05/13 02:54:21;;;;;;;8.67;5.97;;;;;;;15.53;63.23;101525.53;2081010;28;20173;-65
2022/05/13 02:55:21;;;;;;;10.33;6.03;;;;;;;15.51;63.18;101521.59;2079974;28;20169;-65
2022/05/13 02:56:22;;;;;;;10.37;6.53;;;;;;;15.47;63.23;101518.94;2080756;28;20472;-66
2022/05/13 02:57:23;;;;;;;11.87;6.00;;;;;;;15.54;63.21;101524.31;2081019;28;20245;-66
2022/05/13 02:58:23;;;;;;;7.80;6.00;;;;;;;15.55;63.36;101527.88;2080817;28;20473;-66
2022/05/13 02:59:24;;;;;;;9.10;6.43;;;;;;;15.43;63.53;101518.25;2080916;28;20206;-66
2022/05/13 03:00:25;;;;;;;13.07;6.23;;;;;;;15.57;63.90;101528.25;2080861;28;20270;-65
2022/05/13 03:01:27;;;;;;;9.37;6.47;;;;;;;15.57;63.70;101534.59;2080081;28;20180;-65
2022/05/13 03:02:27;;;;;;;7.17;5.83;;;;;;;15.59;63.92;101525.78;2080366;28;20426;-66
2022/05/13 03:03:29;;;;;;;10.50;5.93;;;;;;;15.60;63.42;101532.91;2080874;28;20422;-65
2022/05/13 03:04:30;;;;;;;10.63;6.20;;;;;;;15.60;63.43;101528.13;2080393;28;20195;-66
2022/05/13 03:05:31;;;;;;;8.43;6.10;;;;;;;15.57;63.22;101519.84;2080473;28;20420;-65
2022/05/13 03:06:31;;;;;;;9.40;5.90;;;;;;;15.65;63.28;101537.94;2080643;28;20694;-65
2022/05/13 03:07:32;;;;;;;8.73;5.90;;;;;;;15.64;62.47;101536.41;2080203;28;20577;-66
2022/05/13 03:08:32;;;;;;;9.23;5.43;;;;;;;15.66;61.96;101539.50;2071996;28;20687;-66
2022/05/13 03:09:34;;;;;;;9.40;5.23;;;;;;;15.09;61.20;101451.03;2080209;28;20215;-65
2022/05/13 03:10:36;;;;;;;6.20;5.40;;;;;;;15.62;61.85;101531.25;2080902;28;20238;-65
2022/05/13 03:11:37;;;;;;;11.07;5.60;;;;;;;15.67;61.69;101532.72;2080598;28;22353;-66
2022/05/13 03:12:38;;;;;;;8.97;5.63;;;;;;;15.69;61.51;101535.84;2082550;28;20938;-65
2022/05/13 03:13:39;;;;;;;7.83;5.70;;;;;;;15.69;61.52;101535.84;2082577;28;20212;-65
2022/05/13 03:14:39;;;;;;;5.97;5.37;;;;;;;15.69;61.76;101530.25;2082405;28;20470;-66
2022/05/13 03:15:40;;;;;;;8.70;5.03;;;;;;;15.60;60.92;101544.88;2082176;28;20207;-66
2022/05/13 03:16:40;;;;;;;12.33;6.00;;;;;;;15.63;60.88;101537.63;2082364;28;20231;-65
2022/05/13 03:17:41;;;;;;;15.07;6.00;;;;;;;15.66;60.96;101540.31;2083067;28;20208;-65
2022/05/13 03:18:42;;;;;;;11.93;6.07;;;;;;;15.70;61.00;101531.81;2082400;28;20220;-65
2022/05/13 03:19:42;;;;;;;8.97;5.57;;;;;;;15.69;60.21;101533.03;2083004;28;20184;-65
2022/05/13 03:20:43;;;;;;;13.37;6.07;;;;;;;15.68;60.20;101535.03;2081689;28;20276;-65
2022/05/13 03:21:43;;;;;;;12.63;5.63;;;;;;;15.69;60.45;101531.03;2072381;28;20656;-66
2022/05/13 03:22:44;;;;;;;9.70;4.90;;;;;;;15.69;59.86;101536.63;2081863;28;20189;-65
2022/05/13 03:23:46;;;;;;;13.43;5.97;;;;;;;15.63;59.87;101535.59;2082513;28;20173;-65
2022/05/13 03:24:47;;;;;;;7.80;5.30;;;;;;;15.38;60.39;101504.81;2081964;28;21042;-65
2022/05/13 03:25:47;;;;;;;12.07;6.23;;;;;;;15.48;60.16;101528.88;2082374;28;20872;-65
2022/05/13 03:26:48;;;;;;;11.30;5.73;;;;;;;15.61;60.54;101538.06;2082188;28;20271;-65
2022/05/13 03:27:49;;;;;;;6.33;4.53;;;;;;;15.01;59.56;101440.50;2082727;28;20240;-65
2022/05/13 03:28:49;;;;;;;8.03;4.80;;;;;;;15.65;59.15;101538.75;2082300;28;20188;-65
2022/05/13 03:29:50;;;;;;;10.60;5.63;;;;;;;15.56;59.70;101521.84;2082530;28;20181;-65
2022/05/13 03:30:51;;;;;;;7.00;5.10;;;;;;;15.68;59.19;101545.47;2082509;28;20259;-65
2022/05/13 03:31:52;;;;;;;7.87;4.97;;;;;;;15.68;58.28;101542.66;2081146;28;20209;-65
2022/05/13 03:32:53;;;;;;;6.67;5.17;;;;;;;15.69;58.40;101552.59;2082465;28;20516;-65
2022/05/13 03:33:54;;;;;;;9.30;5.20;;;;;;;15.72;58.75;101543.34;2082492;28;20180;-65
2022/05/13 03:34:54;;;;;;;10.03;5.10;;;;;;;15.62;58.74;101528.44;2081417;28;20931;-65
2022/05/13 03:35:55;;;;;;;14.53;6.23;;;;;;;15.75;58.86;101548.03;2082624;28;20189;-65
2022/05/13 03:36:55;;;;;;;12.93;5.63;;;;;;;15.80;59.32;101545.47;2082010;28;20181;-65
2022/05/13 03:37:57;;;;;;;9.53;5.47;;;;;;;15.84;59.32;101545.38;2082679;28;20654;-65
2022/05/13 03:38:58;;;;;;;8.63;5.60;;;;;;;15.85;59.32;101546.91;2082284;28;20779;-66
2022/05/13 03:39:59;;;;;;;12.10;5.60;;;;;;;15.68;59.19;101521.06;2082180;28;20850;-65
2022/05/13 03:41:00;;;;;;;12.23;5.53;;;;;;;15.88;59.05;101543.25;2082688;28;20173;-65
2022/05/13 03:42:00;;;;;;;10.17;5.83;;;;;;;15.82;59.06;101531.03;2081203;28;20416;-65
2022/05/13 03:43:00;;;;;;;11.73;5.17;;;;;;;15.89;59.07;101542.00;2082465;28;20203;-65
2022/05/13 03:44:01;;;;;;;17.07;5.90;;;;;;;15.91;59.39;101545.94;2082302;28;20668;-65
2022/05/13 03:45:03;;;;;;;11.53;5.60;;;;;;;15.94;59.26;101542.22;2081132;28;20274;-65
2022/05/13 03:46:03;;;;;;;10.13;5.40;;;;;;;15.96;58.93;101544.56;2082662;28;20180;-65
2022/05/13 03:47:04;;;;;;;13.40;5.87;;;;;;;15.98;59.26;101556.09;2082149;28;20415;-65
2022/05/13 03:48:05;;;;;;;12.10;5.63;;;;;;;15.10;58.94;101418.28;2082382;28;20559;-66
2022/05/13 03:49:06;;;;;;;10.90;5.90;;;;;;;15.98;59.05;101556.09;2082252;28;20426;-66
2022/05/13 03:50:08;;;;;;;7.97;5.40;;;;;;;15.97;58.81;101555.31;2082255;28;20201;-65
2022/05/13 03:51:09;;;;;;;13.70;5.20;;;;;;;15.61;58.65;101507.34;2082753;28;20173;-65
2022/05/13 03:52:10;;;;;;;10.23;5.30;;;;;;;14.99;58.46;101396.28;2080913;28;20459;-65
2022/05/13 03:53:11;;;;;;;12.20;5.30;;;;;;;16.04;58.40;101557.88;2082159;28;20275;-66
2022/05/13 03:54:12;;;;;;;8.23;4.80;;;;;;;15.47;58.56;101471.44;2082769;28;20424;-65
2022/05/13 03:55:12;;;;;;;8.20;5.20;;;;;;;16.06;58.34;101563.03;2081288;28;20669;-65
2022/05/13 03:56:13;;;;;;;7.60;5.20;;;;;;;16.04;58.65;101552.28;2082517;28;20177;-65
2022/05/13 03:57:14;;;;;;;9.70;4.50;;;;;;;15.87;58.49;101533.28;2082016;28;20173;-65
2022/05/13 03:58:14;;;;;;;11.97;5.30;;;;;;;16.07;58.57;101568.19;2082041;28;20261;-66
2022/05/13 03:59:15;;;;;;;9.53;5.30;;;;;;;16.11;58.39;101565.28;2082735;28;20701;-66
2022/05/13 04:00:16;;;;;;;10.57;5.93;;;;;;;16.05;58.51;101551.09;2082082;28;20449;-65
2022/05/13 04:01:17;;;;;;;11.70;5.33;;;;;;;16.11;58.56;101565.28;2082169;28;20611;-65
2022/05/13 04:02:18;;;;;;;9.30;4.73;;;;;;;16.11;58.52;101562.47;2081030;28;20616;-65
2022/05/13 04:03:19;;;;;;;14.90;8.43;;;;;;;15.23;58.52;101417.09;2082064;28;20475;-65
2022/05/13 04:04:22;;;;;;;14.23;10.13;;;;;;;16.14;58.38;101564.38;2082585;28;20192;-65
2022/05/13 04:09:19;;;;;;;9.20;5.07;;;;;;;16.05;58.65;101564.25;2082628;28;20398;-65
2022/05/13 04:10:19;;;;;;;10.57;5.23;;;;;;;16.04;58.47;101563.47;2081946;28;20423;-66
2022/05/13 04:11:20;;;;;;;8.90;4.70;;;;;;;15.45;58.78;101476.69;2081884;28;20622;-65
2022/05/13 04:16:18;;;;;;;13.03;5.97;;;;;;;15.87;59.34;101578.00;2081890;28;20968;-65
2022/05/13 04:17:18;;;;;;;12.70;7.47;;;;;;;15.80;59.61;101581.00;2082365;28;20788;-65
2022/05/13 04:18:19;;;;;;;16.93;6.77;;;;;;;15.82;59.86;101584.13;2088265;28;20252;-66
2022/05/13 04:19:20;;;;;;;6.77;5.83;;;;;;;14.60;59.76;101398.66;2090721;28;20246;-65
2022/05/13 04:20:21;;;;;;;11.37;5.70;;;;;;;15.84;59.38;101585.25;2090130;28;20964;-65
2022/05/13 04:21:30;;;;;;;13.47;6.47;;;;;;;15.29;59.24;101518.66;2089817;28;20414;-65
2022/05/13 04:22:31;;;;;;;17.83;6.70;;;;;;;15.47;59.41;101523.75;2088633;28;20407;-65
2022/05/13 04:23:34;;;;;;;11.10;6.10;;;;;;;15.98;59.44;101581.28;2080995;28;20514;-65
2022/05/13 04:24:34;;;;;;;10.27;5.80;;;;;;;16.01;59.46;101583.16;2081785;28;20672;-65
2022/05/13 04:25:35;;;;;;;9.40;6.43;;;;;;;16.01;59.03;101585.97;2081485;28;20796;-65
2022/05/13 04:26:36;;;;;;;11.07;7.13;;;;;;;16.06;59.03;101585.41;2081518;28;20184;-66
2022/05/13 04:27:36;;;;;;;10.90;6.50;;;;;;;14.89;58.71;101396.59;2081895;28;20173;-65
2022/05/13 04:28:37;;;;;;;11.47;6.50;;;;;;;16.08;58.69;101583.72;2081937;28;20184;-65
2022/05/13 04:29:37;;;;;;;13.87;6.93;;;;;;;15.27;58.56;101442.13;2082109;28;20662;-65
2022/05/13 04:30:38;;;;;;;8.87;6.13;;;;;;;15.94;58.71;101567.38;2081784;28;20184;-65
2022/05/13 04:31:41;;;;;;;12.03;6.10;;;;;;;16.08;58.81;101585.75;2080639;28;20237;-65
2022/05/13 04:32:41;;;;;;;9.73;5.90;;;;;;;16.08;58.61;101588.56;2081454;28;20235;-65
2022/05/13 04:33:42;;;;;;;12.30;6.77;;;;;;;16.05;58.56;101587.44;2081553;28;20564;-65
2022/05/13 04:34:42;;;;;;;13.80;6.60;;;;;;;16.00;59.06;101585.19;2081251;28;20191;-65
2022/05/13 04:35:43;;;;;;;14.30;6.50;;;;;;;15.99;59.05;101592.00;2080384;28;20212;-65
2022/05/13 04:36:44;;;;;;;13.07;5.90;;;;;;;15.99;58.96;101592.00;2081349;28;20180;-65
2022/05/13 04:37:44;;;;;;;7.90;5.90;;;;;;;16.03;58.91;101586.31;2077312;28;20199;-65
2022/05/13 04:38:45;;;;;;;10.57;5.90;;;;;;;14.86;58.82;101397.50;2080350;28;20237;-65
2022/05/13 04:39:52;;;;;;;10.97;5.70;;;;;;;16.11;58.85;101582.84;2080368;28;20188;-65
2022/05/13 04:40:53;;;;;;;14.33;8.07;;;;;;;15.64;58.45;101500.88;2080768;28;20180;-65
2022/05/13 04:43:13;;;;;;;14.07;6.07;;;;;;;16.20;58.74;101579.38;2080336;28;20191;-65
2022/05/13 04:44:15;;;;;;;12.07;5.57;;;;;;;16.17;58.75;101589.44;2080057;28;20435;-65
2022/05/13 04:45:25;;;;;;;8.37;5.53;;;;;;;16.24;58.03;101586.41;2079612;28;20264;-65
2022/05/13 04:46:26;;;;;;;7.67;5.23;;;;;;;16.10;57.44;101570.09;2079865;28;20492;-65
2022/05/13 04:48:48;;;;;;;11.60;5.40;;;;;;;16.29;57.64;101588.63;2079202;28;20177;-65
2022/05/13 04:49:49;;;;;;;10.03;5.47;;;;;;;16.33;57.98;101591.31;2080144;28;20599;-65
2022/05/13 04:50:57;;;;;;;13.57;5.50;;;;;;;16.36;58.06;101594.03;2078139;28;20424;-65
2022/05/13 04:51:58;;;;;;;14.50;8.93;;;;;;;16.41;58.16;101589.91;2076881;28;20193;-65
2022/05/13 04:52:58;;;;;;;18.10;8.50;;;;;;;16.30;58.39;101559.44;2077947;28;21050;-65
2022/05/13 04:53:59;;;;;;;17.93;7.80;;;;;;;16.54;58.50;101585.09;2077489;28;20192;-65
2022/05/13 04:55:00;;;;;;;17.77;6.70;;;;;;;16.62;58.93;101585.63;2076691;28;20194;-65
2022/05/13 04:56:02;;;;;;;33.70;6.77;;;;;;;16.66;58.61;101587.06;2079675;28;20188;-65
2022/05/13 04:57:02;;;;;;;20.43;6.43;;;;;;;16.15;58.68;101496.81;2079017;28;20187;-65
2022/05/13 04:58:04;;;;;;;12.53;5.90;;;;;;;16.69;58.73;101572.16;2079694;28;20932;-65